sensor_id;sensor_type;location;lat;lon;timestamp;temperature;humidity
9998;DHT22;5038;53.064;8.624;2023-02-28T00:01:42;3.70;99.90
9998;DHT22;5038;53.064;8.624;2023-02-28T00:04:11;3.70;99.90
9998;DHT22;5038;53.064;8.624;2023-02-28T00:06:39;3.70;99.90
9998;DHT22;5038;53.064;8.624;2023-02-28T00:09:08;3.70;99.90
9998;DHT22;5038;53.064;8.624;2023-02-28T00:11:36;3.70;99.90
9998;DHT22;5038;53.064;8.624;2023-02-28T00:14:04;3.70;99.90
9998;DHT22;5038;53.064;8.624;2023-02-28T00:16:34;3.70;99.90
9998;DHT22;5038;53.064;8.624;2023-02-28T00:19:02;3.70;99.90
9998;DHT22;5038;53.064;8.624;2023-02-28T00:21:30;3.70;99.90
9998;DHT22;5038;53.064;8.624;2023-02-28T00:23:58;3.60;99.90
9998;DHT22;5038;53.064;8.624;2023-02-28T00:26:26;3.60;99.90
9998;DHT22;5038;53.064;8.624;2023-02-28T00:28:54;3.60;99.90
9998;DHT22;5038;53.064;8.624;2023-02-28T00:31:23;3.70;99.90
9998;DHT22;5038;53.064;8.624;2023-02-28T00:33:52;3.70;99.90
9998;DHT22;5038;53.064;8.624;2023-02-28T00:36:20;3.60;99.90
9998;DHT22;5038;53.064;8.624;2023-02-28T00:38:48;3.60;99.90
9998;DHT22;5038;53.064;8.624;2023-02-28T00:41:16;3.70;99.90
9998;DHT22;5038;53.064;8.624;2023-02-28T00:43:47;3.60;99.90
9998;DHT22;5038;53.064;8.624;2023-02-28T00:46:15;3.60;99.90
9998;DHT22;5038;53.064;8.624;2023-02-28T00:48:43;3.60;99.90
9998;DHT22;5038;53.064;8.624;2023-02-28T00:51:13;3.60;99.90
9998;DHT22;5038;53.064;8.624;2023-02-28T00:53:41;3.60;99.90
9998;DHT22;5038;53.064;8.624;2023-02-28T00:56:09;3.60;99.90
9998;DHT22;5038;53.064;8.624;2023-02-28T00:58:37;3.60;99.90
9998;DHT22;5038;53.064;8.624;2023-02-28T01:01:06;3.60;99.90
9998;DHT22;5038;53.064;8.624;2023-02-28T01:03:34;3.60;99.90
9998;DHT22;5038;53.064;8.624;2023-02-28T01:06:03;3.60;99.90
9998;DHT22;5038;53.064;8.624;2023-02-28T01:08:32;3.60;99.90
9998;DHT22;5038;53.064;8.624;2023-02-28T01:11:08;3.60;99.90
9998;DHT22;5038;53.064;8.624;2023-02-28T01:13:39;3.60;99.90
9998;DHT22;5038;53.064;8.624;2023-02-28T01:16:07;3.70;99.90
9998;DHT22;5038;53.064;8.624;2023-02-28T01:18:36;3.60;99.90
9998;DHT22;5038;53.064;8.624;2023-02-28T01:21:05;3.60;99.90
9998;DHT22;5038;53.064;8.624;2023-02-28T01:23:35;3.60;99.90
9998;DHT22;5038;53.064;8.624;2023-02-28T01:26:05;3.60;99.90
9998;DHT22;5038;53.064;8.624;2023-02-28T01:28:34;3.60;99.90
9998;DHT22;5038;53.064;8.624;2023-02-28T01:31:02;3.60;99.90
9998;DHT22;5038;53.064;8.624;2023-02-28T01:33:32;3.60;99.90
9998;DHT22;5038;53.064;8.624;2023-02-28T01:36:00;3.60;99.90
9998;DHT22;5038;53.064;8.624;2023-02-28T01:38:29;3.60;99.90
9998;DHT22;5038;53.064;8.624;2023-02-28T01:40:58;3.60;99.90
9998;DHT22;5038;53.064;8.624;2023-02-28T01:43:28;3.60;99.90
9998;DHT22;5038;53.064;8.624;2023-02-28T01:45:58;3.60;99.90
9998;DHT22;5038;53.064;8.624;2023-02-28T01:48:29;3.60;99.90
9998;DHT22;5038;53.064;8.624;2023-02-28T01:51:00;3.60;99.90
9998;DHT22;5038;53.064;8.624;2023-02-28T01:53:33;3.70;99.90
9998;DHT22;5038;53.064;8.624;2023-02-28T01:56:06;3.60;99.90
9998;DHT22;5038;53.064;8.624;2023-02-28T01:58:36;3.60;99.90
9998;DHT22;5038;53.064;8.624;2023-02-28T02:01:04;3.60;99.90
9998;DHT22;5038;53.064;8.624;2023-02-28T02:03:34;3.60;99.90
9998;DHT22;5038;53.064;8.624;2023-02-28T02:06:03;3.60;99.90
9998;DHT22;5038;53.064;8.624;2023-02-28T02:08:32;3.60;99.90
9998;DHT22;5038;53.064;8.624;2023-02-28T02:11:01;3.60;99.90
9998;DHT22;5038;53.064;8.624;2023-02-28T02:13:42;3.60;99.90
9998;DHT22;5038;53.064;8.624;2023-02-28T02:16:34;3.60;99.90
9998;DHT22;5038;53.064;8.624;2023-02-28T02:19:15;3.60;99.90
9998;DHT22;5038;53.064;8.624;2023-02-28T02:25:11;3.60;99.90
9998;DHT22;5038;53.064;8.624;2023-02-28T02:30:55;3.60;99.90
9998;DHT22;5038;53.064;8.624;2023-02-28T02:33:38;3.60;99.90
9998;DHT22;5038;53.064;8.624;2023-02-28T02:36:14;3.60;99.90
9998;DHT22;5038;53.064;8.624;2023-02-28T02:38:48;3.60;99.90
9998;DHT22;5038;53.064;8.624;2023-02-28T02:41:22;3.60;99.90
9998;DHT22;5038;53.064;8.624;2023-02-28T02:43:53;3.60;99.90
9998;DHT22;5038;53.064;8.624;2023-02-28T02:46:29;3.60;99.90
9998;DHT22;5038;53.064;8.624;2023-02-28T02:49:00;3.60;99.90
9998;DHT22;5038;53.064;8.624;2023-02-28T02:51:32;3.60;99.90
9998;DHT22;5038;53.064;8.624;2023-02-28T02:54:05;3.50;99.90
9998;DHT22;5038;53.064;8.624;2023-02-28T02:56:36;3.50;99.90
9998;DHT22;5038;53.064;8.624;2023-02-28T02:59:09;3.50;99.90
9998;DHT22;5038;53.064;8.624;2023-02-28T03:01:41;3.50;99.90
9998;DHT22;5038;53.064;8.624;2023-02-28T03:04:14;3.50;99.90
9998;DHT22;5038;53.064;8.624;2023-02-28T03:06:45;3.50;99.90
9998;DHT22;5038;53.064;8.624;2023-02-28T03:09:13;3.50;99.90
9998;DHT22;5038;53.064;8.624;2023-02-28T03:11:42;3.50;99.90
9998;DHT22;5038;53.064;8.624;2023-02-28T03:14:25;3.50;99.90
9998;DHT22;5038;53.064;8.624;2023-02-28T03:17:05;3.50;99.90
9998;DHT22;5038;53.064;8.624;2023-02-28T03:19:54;3.50;99.90
9998;DHT22;5038;53.064;8.624;2023-02-28T03:22:38;3.50;99.90
9998;DHT22;5038;53.064;8.624;2023-02-28T03:25:10;3.40;99.90
9998;DHT22;5038;53.064;8.624;2023-02-28T03:27:45;3.50;99.90
9998;DHT22;5038;53.064;8.624;2023-02-28T03:30:22;3.40;99.90
9998;DHT22;5038;53.064;8.624;2023-02-28T03:32:55;3.40;99.90
9998;DHT22;5038;53.064;8.624;2023-02-28T03:35:28;3.40;99.90
9998;DHT22;5038;53.064;8.624;2023-02-28T03:38:05;3.40;99.90
9998;DHT22;5038;53.064;8.624;2023-02-28T03:40:37;3.40;99.90
9998;DHT22;5038;53.064;8.624;2023-02-28T03:43:11;3.40;99.90
9998;DHT22;5038;53.064;8.624;2023-02-28T03:45:41;3.40;99.90
9998;DHT22;5038;53.064;8.624;2023-02-28T03:48:15;3.40;99.90
9998;DHT22;5038;53.064;8.624;2023-02-28T03:50:45;3.40;99.90
9998;DHT22;5038;53.064;8.624;2023-02-28T03:53:20;3.40;99.90
9998;DHT22;5038;53.064;8.624;2023-02-28T03:55:52;3.30;99.90
9998;DHT22;5038;53.064;8.624;2023-02-28T03:58:26;3.30;99.90
9998;DHT22;5038;53.064;8.624;2023-02-28T04:01:00;3.30;99.90
9998;DHT22;5038;53.064;8.624;2023-02-28T04:03:35;3.30;99.90
9998;DHT22;5038;53.064;8.624;2023-02-28T04:06:04;3.30;99.90
9998;DHT22;5038;53.064;8.624;2023-02-28T04:08:35;3.30;99.90
9998;DHT22;5038;53.064;8.624;2023-02-28T04:11:06;3.30;99.90
9998;DHT22;5038;53.064;8.624;2023-02-28T04:13:36;3.30;99.90
9998;DHT22;5038;53.064;8.624;2023-02-28T04:16:06;3.20;99.90
9998;DHT22;5038;53.064;8.624;2023-02-28T04:18:47;3.20;99.90
9998;DHT22;5038;53.064;8.624;2023-02-28T04:21:15;3.20;99.90
9998;DHT22;5038;53.064;8.624;2023-02-28T04:23:48;3.20;99.90
9998;DHT22;5038;53.064;8.624;2023-02-28T04:26:16;3.20;99.90
9998;DHT22;5038;53.064;8.624;2023-02-28T04:28:44;3.20;99.90
9998;DHT22;5038;53.064;8.624;2023-02-28T04:31:12;3.20;99.90
9998;DHT22;5038;53.064;8.624;2023-02-28T04:33:41;3.20;99.90
9998;DHT22;5038;53.064;8.624;2023-02-28T04:36:09;3.20;99.90
9998;DHT22;5038;53.064;8.624;2023-02-28T04:38:38;3.20;99.90
9998;DHT22;5038;53.064;8.624;2023-02-28T04:41:08;3.20;99.90
9998;DHT22;5038;53.064;8.624;2023-02-28T04:43:36;3.10;99.90
9998;DHT22;5038;53.064;8.624;2023-02-28T04:46:05;3.10;99.90
9998;DHT22;5038;53.064;8.624;2023-02-28T04:48:35;3.10;99.90
9998;DHT22;5038;53.064;8.624;2023-02-28T04:51:06;3.10;99.90
9998;DHT22;5038;53.064;8.624;2023-02-28T04:53:34;3.10;99.90
9998;DHT22;5038;53.064;8.624;2023-02-28T04:56:03;3.10;99.90
9998;DHT22;5038;53.064;8.624;2023-02-28T04:58:34;3.10;99.90
9998;DHT22;5038;53.064;8.624;2023-02-28T05:01:04;3.10;99.90
9998;DHT22;5038;53.064;8.624;2023-02-28T05:03:39;3.10;99.90
9998;DHT22;5038;53.064;8.624;2023-02-28T05:06:08;3.10;99.90
9998;DHT22;5038;53.064;8.624;2023-02-28T05:08:36;3.10;99.90
9998;DHT22;5038;53.064;8.624;2023-02-28T05:11:06;3.10;99.90
9998;DHT22;5038;53.064;8.624;2023-02-28T05:13:36;3.00;99.90
9998;DHT22;5038;53.064;8.624;2023-02-28T05:16:05;3.00;99.90
9998;DHT22;5038;53.064;8.624;2023-02-28T05:18:33;3.00;99.90
9998;DHT22;5038;53.064;8.624;2023-02-28T05:21:02;3.00;99.90
9998;DHT22;5038;53.064;8.624;2023-02-28T05:23:30;3.00;99.90
9998;DHT22;5038;53.064;8.624;2023-02-28T05:25:59;3.00;99.90
9998;DHT22;5038;53.064;8.624;2023-02-28T05:28:27;3.00;99.90
9998;DHT22;5038;53.064;8.624;2023-02-28T05:30:56;3.00;99.90
9998;DHT22;5038;53.064;8.624;2023-02-28T05:33:24;3.00;99.90
9998;DHT22;5038;53.064;8.624;2023-02-28T05:35:52;3.00;99.90
9998;DHT22;5038;53.064;8.624;2023-02-28T05:38:20;3.00;99.90
9998;DHT22;5038;53.064;8.624;2023-02-28T05:40:49;2.90;99.90
9998;DHT22;5038;53.064;8.624;2023-02-28T05:43:17;2.90;99.90
9998;DHT22;5038;53.064;8.624;2023-02-28T05:45:45;2.90;99.90
9998;DHT22;5038;53.064;8.624;2023-02-28T05:48:15;2.90;99.90
9998;DHT22;5038;53.064;8.624;2023-02-28T05:50:43;2.90;99.90
9998;DHT22;5038;53.064;8.624;2023-02-28T05:53:12;2.80;99.90
9998;DHT22;5038;53.064;8.624;2023-02-28T05:55:40;2.80;99.90
9998;DHT22;5038;53.064;8.624;2023-02-28T05:58:09;2.80;99.90
9998;DHT22;5038;53.064;8.624;2023-02-28T06:00:37;2.70;99.90
9998;DHT22;5038;53.064;8.624;2023-02-28T06:03:08;2.70;99.90
9998;DHT22;5038;53.064;8.624;2023-02-28T06:05:37;2.70;99.90
9998;DHT22;5038;53.064;8.624;2023-02-28T06:08:05;2.60;99.90
9998;DHT22;5038;53.064;8.624;2023-02-28T06:10:34;2.60;99.90
9998;DHT22;5038;53.064;8.624;2023-02-28T06:13:03;2.60;99.90
9998;DHT22;5038;53.064;8.624;2023-02-28T06:15:31;2.50;99.90
9998;DHT22;5038;53.064;8.624;2023-02-28T06:18:00;2.50;99.90
9998;DHT22;5038;53.064;8.624;2023-02-28T06:20:28;2.50;99.90
9998;DHT22;5038;53.064;8.624;2023-02-28T06:22:58;2.50;99.90
9998;DHT22;5038;53.064;8.624;2023-02-28T06:25:27;2.50;99.90
9998;DHT22;5038;53.064;8.624;2023-02-28T06:27:55;2.40;99.90
9998;DHT22;5038;53.064;8.624;2023-02-28T06:30:23;2.40;99.90
9998;DHT22;5038;53.064;8.624;2023-02-28T06:32:54;2.40;99.90
9998;DHT22;5038;53.064;8.624;2023-02-28T06:35:22;2.30;99.90
9998;DHT22;5038;53.064;8.624;2023-02-28T06:37:50;2.30;99.90
9998;DHT22;5038;53.064;8.624;2023-02-28T06:40:20;2.30;99.90
9998;DHT22;5038;53.064;8.624;2023-02-28T06:42:48;2.30;99.90
9998;DHT22;5038;53.064;8.624;2023-02-28T06:45:16;2.30;99.90
9998;DHT22;5038;53.064;8.624;2023-02-28T06:47:44;2.20;99.90
9998;DHT22;5038;53.064;8.624;2023-02-28T06:50:13;2.30;99.90
9998;DHT22;5038;53.064;8.624;2023-02-28T06:52:41;2.20;99.90
9998;DHT22;5038;53.064;8.624;2023-02-28T06:55:09;2.20;99.90
9998;DHT22;5038;53.064;8.624;2023-02-28T06:57:39;2.20;99.90
9998;DHT22;5038;53.064;8.624;2023-02-28T07:00:08;2.20;99.90
9998;DHT22;5038;53.064;8.624;2023-02-28T07:02:37;2.20;99.90
9998;DHT22;5038;53.064;8.624;2023-02-28T07:05:06;2.10;99.90
9998;DHT22;5038;53.064;8.624;2023-02-28T07:07:34;2.20;99.90
9998;DHT22;5038;53.064;8.624;2023-02-28T07:10:05;2.10;99.90
9998;DHT22;5038;53.064;8.624;2023-02-28T07:12:33;2.10;99.90
9998;DHT22;5038;53.064;8.624;2023-02-28T07:15:03;2.10;99.90
9998;DHT22;5038;53.064;8.624;2023-02-28T07:17:31;2.10;99.90
9998;DHT22;5038;53.064;8.624;2023-02-28T07:19:59;2.10;99.90
9998;DHT22;5038;53.064;8.624;2023-02-28T07:22:28;2.10;99.90
9998;DHT22;5038;53.064;8.624;2023-02-28T07:24:56;2.10;99.90
9998;DHT22;5038;53.064;8.624;2023-02-28T07:27:24;2.20;99.90
9998;DHT22;5038;53.064;8.624;2023-02-28T07:29:52;2.20;99.90
9998;DHT22;5038;53.064;8.624;2023-02-28T07:32:22;2.20;99.90
9998;DHT22;5038;53.064;8.624;2023-02-28T07:34:51;2.20;99.90
9998;DHT22;5038;53.064;8.624;2023-02-28T07:37:19;2.30;99.90
9998;DHT22;5038;53.064;8.624;2023-02-28T07:39:47;2.20;99.90
9998;DHT22;5038;53.064;8.624;2023-02-28T07:42:15;2.30;99.90
9998;DHT22;5038;53.064;8.624;2023-02-28T07:44:43;2.40;99.90
9998;DHT22;5038;53.064;8.624;2023-02-28T07:47:11;2.50;99.90
9998;DHT22;5038;53.064;8.624;2023-02-28T07:49:41;2.50;99.90
9998;DHT22;5038;53.064;8.624;2023-02-28T07:52:09;2.50;99.90
9998;DHT22;5038;53.064;8.624;2023-02-28T07:54:38;2.60;99.90
9998;DHT22;5038;53.064;8.624;2023-02-28T07:57:06;2.60;99.90
9998;DHT22;5038;53.064;8.624;2023-02-28T07:59:34;2.70;99.90
9998;DHT22;5038;53.064;8.624;2023-02-28T08:02:02;2.80;99.90
9998;DHT22;5038;53.064;8.624;2023-02-28T08:04:31;2.90;99.90
9998;DHT22;5038;53.064;8.624;2023-02-28T08:07:01;2.90;99.90
9998;DHT22;5038;53.064;8.624;2023-02-28T08:09:29;3.00;99.90
9998;DHT22;5038;53.064;8.624;2023-02-28T08:11:57;3.10;99.90
9998;DHT22;5038;53.064;8.624;2023-02-28T08:14:25;3.10;99.90
9998;DHT22;5038;53.064;8.624;2023-02-28T08:16:53;3.30;99.90
9998;DHT22;5038;53.064;8.624;2023-02-28T08:19:21;3.40;99.90
9998;DHT22;5038;53.064;8.624;2023-02-28T08:21:49;3.50;99.90
9998;DHT22;5038;53.064;8.624;2023-02-28T08:24:19;3.60;99.90
9998;DHT22;5038;53.064;8.624;2023-02-28T08:26:47;3.70;99.90
9998;DHT22;5038;53.064;8.624;2023-02-28T08:29:15;3.80;99.90
9998;DHT22;5038;53.064;8.624;2023-02-28T08:31:43;4.00;99.90
9998;DHT22;5038;53.064;8.624;2023-02-28T08:34:14;4.10;99.90
9998;DHT22;5038;53.064;8.624;2023-02-28T08:36:42;4.20;99.90
9998;DHT22;5038;53.064;8.624;2023-02-28T08:39:12;4.30;99.90
9998;DHT22;5038;53.064;8.624;2023-02-28T08:41:42;4.40;99.90
9998;DHT22;5038;53.064;8.624;2023-02-28T08:44:10;4.50;99.90
9998;DHT22;5038;53.064;8.624;2023-02-28T08:46:38;4.60;99.90
9998;DHT22;5038;53.064;8.624;2023-02-28T08:49:06;4.60;99.90
9998;DHT22;5038;53.064;8.624;2023-02-28T08:51:36;4.70;99.90
9998;DHT22;5038;53.064;8.624;2023-02-28T08:54:04;4.70;99.90
9998;DHT22;5038;53.064;8.624;2023-02-28T08:56:32;4.70;99.90
9998;DHT22;5038;53.064;8.624;2023-02-28T08:59:02;4.80;99.90
9998;DHT22;5038;53.064;8.624;2023-02-28T09:01:30;4.80;99.90
9998;DHT22;5038;53.064;8.624;2023-02-28T09:03:59;4.80;99.90
9998;DHT22;5038;53.064;8.624;2023-02-28T09:06:29;4.80;99.90
9998;DHT22;5038;53.064;8.624;2023-02-28T09:08:58;4.80;99.90
9998;DHT22;5038;53.064;8.624;2023-02-28T09:11:28;4.80;99.90
9998;DHT22;5038;53.064;8.624;2023-02-28T09:13:57;4.90;99.90
9998;DHT22;5038;53.064;8.624;2023-02-28T09:16:28;4.90;99.90
9998;DHT22;5038;53.064;8.624;2023-02-28T09:18:57;4.90;99.90
9998;DHT22;5038;53.064;8.624;2023-02-28T09:21:26;4.90;99.90
9998;DHT22;5038;53.064;8.624;2023-02-28T09:23:55;4.90;99.90
9998;DHT22;5038;53.064;8.624;2023-02-28T09:26:25;5.00;99.90
9998;DHT22;5038;53.064;8.624;2023-02-28T09:29:04;5.00;99.90
9998;DHT22;5038;53.064;8.624;2023-02-28T09:31:34;5.00;99.90
9998;DHT22;5038;53.064;8.624;2023-02-28T09:34:04;5.00;99.90
9998;DHT22;5038;53.064;8.624;2023-02-28T09:36:32;5.00;99.90
9998;DHT22;5038;53.064;8.624;2023-02-28T09:39:12;5.00;99.90
9998;DHT22;5038;53.064;8.624;2023-02-28T09:41:44;5.10;99.90
9998;DHT22;5038;53.064;8.624;2023-02-28T09:44:21;5.10;99.90
9998;DHT22;5038;53.064;8.624;2023-02-28T09:46:55;5.10;99.90
9998;DHT22;5038;53.064;8.624;2023-02-28T09:49:33;5.10;99.90
9998;DHT22;5038;53.064;8.624;2023-02-28T09:52:04;5.20;99.90
9998;DHT22;5038;53.064;8.624;2023-02-28T09:54:36;5.20;99.90
9998;DHT22;5038;53.064;8.624;2023-02-28T09:57:08;5.20;99.90
9998;DHT22;5038;53.064;8.624;2023-02-28T09:59:53;5.20;99.90
9998;DHT22;5038;53.064;8.624;2023-02-28T10:02:41;5.30;99.90
9998;DHT22;5038;53.064;8.624;2023-02-28T10:05:13;5.30;99.90
9998;DHT22;5038;53.064;8.624;2023-02-28T10:08:03;5.30;99.90
9998;DHT22;5038;53.064;8.624;2023-02-28T10:10:38;5.40;99.90
9998;DHT22;5038;53.064;8.624;2023-02-28T10:13:14;5.40;99.90
9998;DHT22;5038;53.064;8.624;2023-02-28T10:15:46;5.40;99.90
9998;DHT22;5038;53.064;8.624;2023-02-28T10:18:22;5.40;99.90
9998;DHT22;5038;53.064;8.624;2023-02-28T10:20:53;5.50;99.90
9998;DHT22;5038;53.064;8.624;2023-02-28T10:23:26;5.50;99.90
9998;DHT22;5038;53.064;8.624;2023-02-28T10:25:59;5.50;99.90
9998;DHT22;5038;53.064;8.624;2023-02-28T10:28:29;5.50;99.90
9998;DHT22;5038;53.064;8.624;2023-02-28T10:30:58;5.60;99.90
9998;DHT22;5038;53.064;8.624;2023-02-28T10:33:31;5.60;99.90
9998;DHT22;5038;53.064;8.624;2023-02-28T10:36:01;5.60;99.90
9998;DHT22;5038;53.064;8.624;2023-02-28T10:38:34;5.60;99.90
9998;DHT22;5038;53.064;8.624;2023-02-28T10:41:07;5.60;99.90
9998;DHT22;5038;53.064;8.624;2023-02-28T10:43:36;5.60;99.90
9998;DHT22;5038;53.064;8.624;2023-02-28T10:46:11;5.60;99.90
9998;DHT22;5038;53.064;8.624;2023-02-28T10:49:04;5.60;99.90
9998;DHT22;5038;53.064;8.624;2023-02-28T10:51:37;5.60;99.90
9998;DHT22;5038;53.064;8.624;2023-02-28T10:54:16;5.60;99.90
9998;DHT22;5038;53.064;8.624;2023-02-28T10:56:45;5.70;99.90
9998;DHT22;5038;53.064;8.624;2023-02-28T10:59:28;5.70;99.90
9998;DHT22;5038;53.064;8.624;2023-02-28T11:01:56;5.70;99.90
9998;DHT22;5038;53.064;8.624;2023-02-28T11:04:36;5.80;99.90
9998;DHT22;5038;53.064;8.624;2023-02-28T11:07:17;5.80;99.90
9998;DHT22;5038;53.064;8.624;2023-02-28T11:09:50;5.80;99.90
9998;DHT22;5038;53.064;8.624;2023-02-28T11:12:21;5.90;99.90
9998;DHT22;5038;53.064;8.624;2023-02-28T11:14:52;5.90;99.90
9998;DHT22;5038;53.064;8.624;2023-02-28T11:17:23;5.90;99.90
9998;DHT22;5038;53.064;8.624;2023-02-28T11:19:55;5.90;99.90
9998;DHT22;5038;53.064;8.624;2023-02-28T11:22:26;6.00;99.90
9998;DHT22;5038;53.064;8.624;2023-02-28T11:24:57;6.00;99.90
9998;DHT22;5038;53.064;8.624;2023-02-28T11:27:44;6.00;99.90
9998;DHT22;5038;53.064;8.624;2023-02-28T11:30:28;6.00;99.90
9998;DHT22;5038;53.064;8.624;2023-02-28T11:32:57;6.10;99.90
9998;DHT22;5038;53.064;8.624;2023-02-28T11:35:31;6.10;99.90
9998;DHT22;5038;53.064;8.624;2023-02-28T11:38:02;6.10;99.90
9998;DHT22;5038;53.064;8.624;2023-02-28T11:40:36;6.10;99.90
9998;DHT22;5038;53.064;8.624;2023-02-28T11:43:20;6.10;99.90
9998;DHT22;5038;53.064;8.624;2023-02-28T11:46:00;6.10;99.90
9998;DHT22;5038;53.064;8.624;2023-02-28T11:48:39;6.20;99.90
9998;DHT22;5038;53.064;8.624;2023-02-28T11:51:15;6.20;99.90
9998;DHT22;5038;53.064;8.624;2023-02-28T11:53:58;6.20;99.90
9998;DHT22;5038;53.064;8.624;2023-02-28T11:56:32;6.30;99.90
9998;DHT22;5038;53.064;8.624;2023-02-28T11:59:14;6.20;99.90
9998;DHT22;5038;53.064;8.624;2023-02-28T12:02:03;6.20;99.90
9998;DHT22;5038;53.064;8.624;2023-02-28T12:04:38;6.30;99.90
9998;DHT22;5038;53.064;8.624;2023-02-28T12:07:16;6.30;99.90
9998;DHT22;5038;53.064;8.624;2023-02-28T12:09:54;6.30;99.90
9998;DHT22;5038;53.064;8.624;2023-02-28T12:12:38;6.30;99.90
9998;DHT22;5038;53.064;8.624;2023-02-28T12:15:24;6.30;99.90
9998;DHT22;5038;53.064;8.624;2023-02-28T12:18:17;6.40;99.90
9998;DHT22;5038;53.064;8.624;2023-02-28T12:20:53;6.40;99.90
9998;DHT22;5038;53.064;8.624;2023-02-28T12:23:48;6.40;99.90
9998;DHT22;5038;53.064;8.624;2023-02-28T12:26:20;6.40;99.90
9998;DHT22;5038;53.064;8.624;2023-02-28T12:28:56;6.50;99.90
9998;DHT22;5038;53.064;8.624;2023-02-28T12:31:30;6.50;99.90
9998;DHT22;5038;53.064;8.624;2023-02-28T12:34:04;6.50;99.90
9998;DHT22;5038;53.064;8.624;2023-02-28T12:36:34;6.50;99.90
9998;DHT22;5038;53.064;8.624;2023-02-28T12:39:10;6.50;99.90
9998;DHT22;5038;53.064;8.624;2023-02-28T12:41:42;6.60;99.90
9998;DHT22;5038;53.064;8.624;2023-02-28T12:44:14;6.60;99.90
9998;DHT22;5038;53.064;8.624;2023-02-28T12:46:47;6.60;99.90
9998;DHT22;5038;53.064;8.624;2023-02-28T12:49:19;6.70;99.90
9998;DHT22;5038;53.064;8.624;2023-02-28T12:51:48;6.70;99.90
9998;DHT22;5038;53.064;8.624;2023-02-28T12:54:24;6.70;99.90
9998;DHT22;5038;53.064;8.624;2023-02-28T12:56:58;6.70;99.90
9998;DHT22;5038;53.064;8.624;2023-02-28T12:59:36;6.70;99.90
9998;DHT22;5038;53.064;8.624;2023-02-28T13:06:17;6.80;99.90
9998;DHT22;5038;53.064;8.624;2023-02-28T13:09:00;6.80;99.90
9998;DHT22;5038;53.064;8.624;2023-02-28T13:11:32;6.80;99.90
9998;DHT22;5038;53.064;8.624;2023-02-28T13:14:03;6.80;99.90
9998;DHT22;5038;53.064;8.624;2023-02-28T13:17:01;6.80;99.90
9998;DHT22;5038;53.064;8.624;2023-02-28T13:19:32;6.90;99.90
9998;DHT22;5038;53.064;8.624;2023-02-28T13:22:01;6.90;99.90
9998;DHT22;5038;53.064;8.624;2023-02-28T13:24:43;6.90;99.90
9998;DHT22;5038;53.064;8.624;2023-02-28T13:27:37;7.00;99.90
9998;DHT22;5038;53.064;8.624;2023-02-28T13:33:23;7.00;99.90
9998;DHT22;5038;53.064;8.624;2023-02-28T13:36:27;7.00;99.90
9998;DHT22;5038;53.064;8.624;2023-02-28T13:39:00;7.10;99.90
9998;DHT22;5038;53.064;8.624;2023-02-28T13:41:47;7.10;99.90
9998;DHT22;5038;53.064;8.624;2023-02-28T13:44:20;7.20;99.90
9998;DHT22;5038;53.064;8.624;2023-02-28T13:47:25;7.20;99.90
9998;DHT22;5038;53.064;8.624;2023-02-28T13:50:15;7.20;99.90
9998;DHT22;5038;53.064;8.624;2023-02-28T13:52:52;7.20;99.90
9998;DHT22;5038;53.064;8.624;2023-02-28T13:55:26;7.30;99.90
9998;DHT22;5038;53.064;8.624;2023-02-28T13:58:18;7.30;99.90
9998;DHT22;5038;53.064;8.624;2023-02-28T14:01:06;7.30;99.90
9998;DHT22;5038;53.064;8.624;2023-02-28T14:03:56;7.40;99.90
9998;DHT22;5038;53.064;8.624;2023-02-28T14:06:28;7.40;99.90
9998;DHT22;5038;53.064;8.624;2023-02-28T14:09:01;7.30;99.90
9998;DHT22;5038;53.064;8.624;2023-02-28T14:11:33;7.40;99.90
9998;DHT22;5038;53.064;8.624;2023-02-28T14:14:03;7.30;99.90
9998;DHT22;5038;53.064;8.624;2023-02-28T14:16:41;7.40;99.90
9998;DHT22;5038;53.064;8.624;2023-02-28T14:19:14;7.40;99.90
9998;DHT22;5038;53.064;8.624;2023-02-28T14:22:01;7.40;99.90
9998;DHT22;5038;53.064;8.624;2023-02-28T14:24:50;7.40;99.90
9998;DHT22;5038;53.064;8.624;2023-02-28T14:27:29;7.50;99.90
9998;DHT22;5038;53.064;8.624;2023-02-28T14:30:26;7.40;99.90
9998;DHT22;5038;53.064;8.624;2023-02-28T14:33:13;7.50;99.90
9998;DHT22;5038;53.064;8.624;2023-02-28T14:35:54;7.50;99.90
9998;DHT22;5038;53.064;8.624;2023-02-28T14:38:27;7.50;99.90
9998;DHT22;5038;53.064;8.624;2023-02-28T14:40:58;7.50;99.90
9998;DHT22;5038;53.064;8.624;2023-02-28T14:43:28;7.50;99.90
9998;DHT22;5038;53.064;8.624;2023-02-28T14:45:58;7.50;99.90
9998;DHT22;5038;53.064;8.624;2023-02-28T14:48:28;7.50;99.90
9998;DHT22;5038;53.064;8.624;2023-02-28T14:50:58;7.50;99.90
9998;DHT22;5038;53.064;8.624;2023-02-28T14:53:30;7.50;99.90
9998;DHT22;5038;53.064;8.624;2023-02-28T14:56:03;7.50;99.90
9998;DHT22;5038;53.064;8.624;2023-02-28T14:58:33;7.50;99.90
9998;DHT22;5038;53.064;8.624;2023-02-28T15:01:03;7.50;99.90
9998;DHT22;5038;53.064;8.624;2023-02-28T15:03:35;7.50;99.90
9998;DHT22;5038;53.064;8.624;2023-02-28T15:06:05;7.50;99.90
9998;DHT22;5038;53.064;8.624;2023-02-28T15:08:33;7.40;99.90
9998;DHT22;5038;53.064;8.624;2023-02-28T15:11:05;7.40;99.90
9998;DHT22;5038;53.064;8.624;2023-02-28T15:13:38;7.40;99.90
9998;DHT22;5038;53.064;8.624;2023-02-28T15:16:10;7.40;99.90
9998;DHT22;5038;53.064;8.624;2023-02-28T15:18:46;7.40;99.90
9998;DHT22;5038;53.064;8.624;2023-02-28T15:21:18;7.30;99.90
9998;DHT22;5038;53.064;8.624;2023-02-28T15:23:51;7.30;99.90
9998;DHT22;5038;53.064;8.624;2023-02-28T15:26:21;7.30;99.90
9998;DHT22;5038;53.064;8.624;2023-02-28T15:28:52;7.30;99.90
9998;DHT22;5038;53.064;8.624;2023-02-28T15:31:27;7.30;99.90
9998;DHT22;5038;53.064;8.624;2023-02-28T15:34:06;7.30;99.90
9998;DHT22;5038;53.064;8.624;2023-02-28T15:36:34;7.20;99.90
9998;DHT22;5038;53.064;8.624;2023-02-28T15:39:20;7.20;99.90
9998;DHT22;5038;53.064;8.624;2023-02-28T15:41:49;7.20;99.90
9998;DHT22;5038;53.064;8.624;2023-02-28T15:44:24;7.20;99.90
9998;DHT22;5038;53.064;8.624;2023-02-28T15:46:57;7.20;99.90
9998;DHT22;5038;53.064;8.624;2023-02-28T15:49:28;7.20;99.90
9998;DHT22;5038;53.064;8.624;2023-02-28T15:52:01;7.10;99.90
9998;DHT22;5038;53.064;8.624;2023-02-28T15:54:32;7.10;99.90
9998;DHT22;5038;53.064;8.624;2023-02-28T15:57:04;7.10;99.90
9998;DHT22;5038;53.064;8.624;2023-02-28T15:59:33;7.10;99.90
9998;DHT22;5038;53.064;8.624;2023-02-28T16:02:16;7.10;99.90
9998;DHT22;5038;53.064;8.624;2023-02-28T16:04:59;7.00;99.90
9998;DHT22;5038;53.064;8.624;2023-02-28T16:07:28;7.00;99.90
9998;DHT22;5038;53.064;8.624;2023-02-28T16:09:56;7.00;99.90
9998;DHT22;5038;53.064;8.624;2023-02-28T16:12:26;7.00;99.90
9998;DHT22;5038;53.064;8.624;2023-02-28T16:14:57;6.90;99.90
9998;DHT22;5038;53.064;8.624;2023-02-28T16:17:28;6.90;99.90
9998;DHT22;5038;53.064;8.624;2023-02-28T16:19:58;6.80;99.90
9998;DHT22;5038;53.064;8.624;2023-02-28T16:22:26;6.80;99.90
9998;DHT22;5038;53.064;8.624;2023-02-28T16:24:54;6.80;99.90
9998;DHT22;5038;53.064;8.624;2023-02-28T16:27:30;6.70;99.90
9998;DHT22;5038;53.064;8.624;2023-02-28T16:29:59;6.70;99.90
9998;DHT22;5038;53.064;8.624;2023-02-28T16:32:28;6.60;99.90
9998;DHT22;5038;53.064;8.624;2023-02-28T16:34:57;6.60;99.90
9998;DHT22;5038;53.064;8.624;2023-02-28T16:37:27;6.60;99.90
9998;DHT22;5038;53.064;8.624;2023-02-28T16:39:55;6.50;99.90
9998;DHT22;5038;53.064;8.624;2023-02-28T16:42:25;6.50;99.90
9998;DHT22;5038;53.064;8.624;2023-02-28T16:44:54;6.50;99.90
9998;DHT22;5038;53.064;8.624;2023-02-28T16:47:23;6.40;99.90
9998;DHT22;5038;53.064;8.624;2023-02-28T16:49:53;6.40;99.90
9998;DHT22;5038;53.064;8.624;2023-02-28T16:52:23;6.30;99.90
9998;DHT22;5038;53.064;8.624;2023-02-28T16:54:51;6.30;99.90
9998;DHT22;5038;53.064;8.624;2023-02-28T16:57:22;6.20;99.90
9998;DHT22;5038;53.064;8.624;2023-02-28T16:59:51;6.20;99.90
9998;DHT22;5038;53.064;8.624;2023-02-28T17:02:19;6.20;99.90
9998;DHT22;5038;53.064;8.624;2023-02-28T17:04:48;6.10;99.90